sensor_id;sensor_type;location;lat;lon;timestamp;P1;durP1;ratioP1;P2;durP2;ratioP2
6626;SDS011;3349;49.830;8.748;2023-02-28T00:00:09;7.00;;;4.00;;
6626;SDS011;3349;49.830;8.748;2023-02-28T00:02:37;9.10;;;4.27;;
6626;SDS011;3349;49.830;8.748;2023-02-28T00:05:05;7.10;;;3.57;;
6626;SDS011;3349;49.830;8.748;2023-02-28T00:07:33;6.20;;;4.00;;
6626;SDS011;3349;49.830;8.748;2023-02-28T00:10:00;9.07;;;4.33;;
6626;SDS011;3349;49.830;8.748;2023-02-28T00:12:27;8.40;;;4.30;;
6626;SDS011;3349;49.830;8.748;2023-02-28T00:14:55;6.37;;;3.40;;
6626;SDS011;3349;49.830;8.748;2023-02-28T00:17:22;4.57;;;3.27;;
6626;SDS011;3349;49.830;8.748;2023-02-28T00:19:49;8.03;;;3.90;;
6626;SDS011;3349;49.830;8.748;2023-02-28T00:22:17;6.97;;;3.83;;
6626;SDS011;3349;49.830;8.748;2023-02-28T00:24:46;4.13;;;3.13;;
6626;SDS011;3349;49.830;8.748;2023-02-28T00:27:13;5.33;;;3.60;;
6626;SDS011;3349;49.830;8.748;2023-02-28T00:29:40;4.30;;;2.90;;
6626;SDS011;3349;49.830;8.748;2023-02-28T00:32:08;3.00;;;2.37;;
6626;SDS011;3349;49.830;8.748;2023-02-28T00:34:35;4.87;;;3.33;;
6626;SDS011;3349;49.830;8.748;2023-02-28T00:37:03;7.20;;;3.80;;
6626;SDS011;3349;49.830;8.748;2023-02-28T00:39:30;5.57;;;3.47;;
6626;SDS011;3349;49.830;8.748;2023-02-28T00:41:59;4.90;;;3.40;;
6626;SDS011;3349;49.830;8.748;2023-02-28T00:44:25;5.70;;;3.20;;
6626;SDS011;3349;49.830;8.748;2023-02-28T00:46:52;4.17;;;3.03;;
6626;SDS011;3349;49.830;8.748;2023-02-28T00:49:20;3.63;;;3.00;;
6626;SDS011;3349;49.830;8.748;2023-02-28T00:51:47;4.13;;;3.20;;
6626;SDS011;3349;49.830;8.748;2023-02-28T00:54:14;6.67;;;3.20;;
6626;SDS011;3349;49.830;8.748;2023-02-28T00:56:41;3.37;;;2.67;;
6626;SDS011;3349;49.830;8.748;2023-02-28T00:59:08;5.37;;;3.07;;
6626;SDS011;3349;49.830;8.748;2023-02-28T01:01:36;6.53;;;3.50;;
6626;SDS011;3349;49.830;8.748;2023-02-28T01:04:02;8.40;;;3.50;;
6626;SDS011;3349;49.830;8.748;2023-02-28T01:06:31;15.03;;;4.90;;
6626;SDS011;3349;49.830;8.748;2023-02-28T01:08:58;13.53;;;5.20;;
6626;SDS011;3349;49.830;8.748;2023-02-28T01:11:25;15.13;;;4.60;;
6626;SDS011;3349;49.830;8.748;2023-02-28T01:13:52;7.63;;;3.63;;
6626;SDS011;3349;49.830;8.748;2023-02-28T01:16:19;9.67;;;4.00;;
6626;SDS011;3349;49.830;8.748;2023-02-28T01:18:45;10.50;;;3.90;;
6626;SDS011;3349;49.830;8.748;2023-02-28T01:21:13;8.70;;;4.40;;
6626;SDS011;3349;49.830;8.748;2023-02-28T01:23:43;11.47;;;4.07;;
6626;SDS011;3349;49.830;8.748;2023-02-28T01:26:11;5.47;;;3.40;;
6626;SDS011;3349;49.830;8.748;2023-02-28T01:28:40;9.70;;;4.40;;
6626;SDS011;3349;49.830;8.748;2023-02-28T01:31:07;7.50;;;3.40;;
6626;SDS011;3349;49.830;8.748;2023-02-28T01:33:35;7.33;;;3.47;;
6626;SDS011;3349;49.830;8.748;2023-02-28T01:36:03;9.30;;;4.00;;
6626;SDS011;3349;49.830;8.748;2023-02-28T01:38:31;12.43;;;4.40;;
6626;SDS011;3349;49.830;8.748;2023-02-28T01:41:01;12.43;;;3.87;;
6626;SDS011;3349;49.830;8.748;2023-02-28T01:43:28;8.93;;;3.93;;
6626;SDS011;3349;49.830;8.748;2023-02-28T01:45:56;14.30;;;4.27;;
6626;SDS011;3349;49.830;8.748;2023-02-28T01:48:25;10.73;;;4.80;;
6626;SDS011;3349;49.830;8.748;2023-02-28T01:50:53;8.63;;;3.97;;
6626;SDS011;3349;49.830;8.748;2023-02-28T01:53:26;11.27;;;4.60;;
6626;SDS011;3349;49.830;8.748;2023-02-28T01:56:01;10.27;;;4.00;;
6626;SDS011;3349;49.830;8.748;2023-02-28T01:58:31;9.27;;;4.17;;
6626;SDS011;3349;49.830;8.748;2023-02-28T02:00:58;7.50;;;3.70;;
6626;SDS011;3349;49.830;8.748;2023-02-28T02:03:25;9.43;;;3.70;;
6626;SDS011;3349;49.830;8.748;2023-02-28T02:05:51;7.53;;;3.70;;
6626;SDS011;3349;49.830;8.748;2023-02-28T02:08:19;10.43;;;4.30;;
6626;SDS011;3349;49.830;8.748;2023-02-28T02:10:49;7.63;;;3.67;;
6626;SDS011;3349;49.830;8.748;2023-02-28T02:13:28;12.73;;;4.23;;
6626;SDS011;3349;49.830;8.748;2023-02-28T02:16:04;13.30;;;4.53;;
6626;SDS011;3349;49.830;8.748;2023-02-28T02:18:43;15.30;;;5.10;;
6626;SDS011;3349;49.830;8.748;2023-02-28T02:21:16;5.83;;;3.30;;
6626;SDS011;3349;49.830;8.748;2023-02-28T02:24:09;7.67;;;3.63;;
6626;SDS011;3349;49.830;8.748;2023-02-28T02:26:59;6.20;;;3.63;;
6626;SDS011;3349;49.830;8.748;2023-02-28T02:29:57;5.03;;;3.27;;
6626;SDS011;3349;49.830;8.748;2023-02-28T02:32:59;5.60;;;3.10;;
6626;SDS011;3349;49.830;8.748;2023-02-28T02:35:32;8.37;;;3.80;;
6626;SDS011;3349;49.830;8.748;2023-02-28T02:38:06;9.30;;;3.67;;
6626;SDS011;3349;49.830;8.748;2023-02-28T02:40:38;7.67;;;3.83;;
6626;SDS011;3349;49.830;8.748;2023-02-28T02:43:11;10.57;;;4.20;;
6626;SDS011;3349;49.830;8.748;2023-02-28T02:45:44;8.20;;;3.90;;
6626;SDS011;3349;49.830;8.748;2023-02-28T02:48:15;5.77;;;3.70;;
6626;SDS011;3349;49.830;8.748;2023-02-28T02:50:48;5.27;;;2.93;;
6626;SDS011;3349;49.830;8.748;2023-02-28T02:53:18;3.33;;;2.83;;
6626;SDS011;3349;49.830;8.748;2023-02-28T02:55:51;3.00;;;2.67;;
6626;SDS011;3349;49.830;8.748;2023-02-28T02:58:20;5.20;;;3.20;;
6626;SDS011;3349;49.830;8.748;2023-02-28T03:00:51;3.77;;;2.97;;
6626;SDS011;3349;49.830;8.748;2023-02-28T03:03:20;4.37;;;3.00;;
6626;SDS011;3349;49.830;8.748;2023-02-28T03:05:55;6.33;;;3.53;;
6626;SDS011;3349;49.830;8.748;2023-02-28T03:08:24;4.97;;;3.37;;
6626;SDS011;3349;49.830;8.748;2023-02-28T03:10:51;4.50;;;3.13;;
6626;SDS011;3349;49.830;8.748;2023-02-28T03:13:29;5.00;;;3.40;;
6626;SDS011;3349;49.830;8.748;2023-02-28T03:19:24;6.93;;;3.60;;
6626;SDS011;3349;49.830;8.748;2023-02-28T03:22:05;8.87;;;4.70;;
6626;SDS011;3349;49.830;8.748;2023-02-28T03:24:43;9.20;;;4.50;;
6626;SDS011;3349;49.830;8.748;2023-02-28T03:27:17;13.10;;;4.70;;
6626;SDS011;3349;49.830;8.748;2023-02-28T03:29:50;8.20;;;3.63;;
6626;SDS011;3349;49.830;8.748;2023-02-28T03:32:25;5.97;;;4.13;;
6626;SDS011;3349;49.830;8.748;2023-02-28T03:34:56;6.03;;;4.00;;
6626;SDS011;3349;49.830;8.748;2023-02-28T03:37:31;5.80;;;3.60;;
6626;SDS011;3349;49.830;8.748;2023-02-28T03:40:02;8.70;;;4.60;;
6626;SDS011;3349;49.830;8.748;2023-02-28T03:42:36;10.87;;;4.90;;
6626;SDS011;3349;49.830;8.748;2023-02-28T03:45:08;6.33;;;3.97;;
6626;SDS011;3349;49.830;8.748;2023-02-28T03:47:40;6.60;;;3.80;;
6626;SDS011;3349;49.830;8.748;2023-02-28T03:50:13;10.47;;;4.53;;
6626;SDS011;3349;49.830;8.748;2023-02-28T03:52:44;11.87;;;4.40;;
6626;SDS011;3349;49.830;8.748;2023-02-28T03:55:15;11.50;;;4.50;;
6626;SDS011;3349;49.830;8.748;2023-02-28T03:57:47;11.93;;;4.60;;
6626;SDS011;3349;49.830;8.748;2023-02-28T04:00:24;8.33;;;4.67;;
6626;SDS011;3349;49.830;8.748;2023-02-28T04:02:54;7.00;;;3.97;;
6626;SDS011;3349;49.830;8.748;2023-02-28T04:05:21;7.40;;;3.97;;
6626;SDS011;3349;49.830;8.748;2023-02-28T04:07:50;9.30;;;4.43;;
6626;SDS011;3349;49.830;8.748;2023-02-28T04:10:17;5.97;;;4.17;;
6626;SDS011;3349;49.830;8.748;2023-02-28T04:12:44;7.60;;;4.67;;
6626;SDS011;3349;49.830;8.748;2023-02-28T04:15:11;7.07;;;3.97;;
6626;SDS011;3349;49.830;8.748;2023-02-28T04:17:38;5.93;;;4.07;;
6626;SDS011;3349;49.830;8.748;2023-02-28T04:20:05;8.77;;;4.33;;
6626;SDS011;3349;49.830;8.748;2023-02-28T04:22:34;9.70;;;4.43;;
6626;SDS011;3349;49.830;8.748;2023-02-28T04:25:04;6.47;;;4.70;;
6626;SDS011;3349;49.830;8.748;2023-02-28T04:27:31;6.50;;;4.47;;
6626;SDS011;3349;49.830;8.748;2023-02-28T04:29:58;5.43;;;3.77;;
6626;SDS011;3349;49.830;8.748;2023-02-28T04:32:25;6.20;;;3.83;;
6626;SDS011;3349;49.830;8.748;2023-02-28T04:34:51;5.00;;;4.13;;
6626;SDS011;3349;49.830;8.748;2023-02-28T04:37:18;7.77;;;3.70;;
6626;SDS011;3349;49.830;8.748;2023-02-28T04:39:45;8.03;;;4.67;;
6626;SDS011;3349;49.830;8.748;2023-02-28T04:42:13;7.70;;;5.40;;
6626;SDS011;3349;49.830;8.748;2023-02-28T04:44:40;6.50;;;4.47;;
6626;SDS011;3349;49.830;8.748;2023-02-28T04:47:07;8.03;;;4.50;;
6626;SDS011;3349;49.830;8.748;2023-02-28T04:49:34;5.30;;;4.17;;
6626;SDS011;3349;49.830;8.748;2023-02-28T04:52:01;6.23;;;4.23;;
6626;SDS011;3349;49.830;8.748;2023-02-28T04:54:28;6.07;;;4.43;;
6626;SDS011;3349;49.830;8.748;2023-02-28T04:56:55;4.60;;;3.77;;
6626;SDS011;3349;49.830;8.748;2023-02-28T04:59:23;5.13;;;4.40;;
6626;SDS011;3349;49.830;8.748;2023-02-28T05:01:50;7.37;;;4.27;;
6626;SDS011;3349;49.830;8.748;2023-02-28T05:04:17;5.07;;;3.77;;
6626;SDS011;3349;49.830;8.748;2023-02-28T05:06:44;7.47;;;3.93;;
6626;SDS011;3349;49.830;8.748;2023-02-28T05:09:10;5.30;;;3.67;;
6626;SDS011;3349;49.830;8.748;2023-02-28T05:11:37;5.93;;;4.33;;
6626;SDS011;3349;49.830;8.748;2023-02-28T05:14:05;7.17;;;4.60;;
6626;SDS011;3349;49.830;8.748;2023-02-28T05:16:34;7.60;;;4.30;;
6626;SDS011;3349;49.830;8.748;2023-02-28T05:19:01;6.17;;;3.80;;
6626;SDS011;3349;49.830;8.748;2023-02-28T05:21:28;8.93;;;4.50;;
6626;SDS011;3349;49.830;8.748;2023-02-28T05:23:57;7.50;;;4.53;;
6626;SDS011;3349;49.830;8.748;2023-02-28T05:26:25;6.67;;;4.23;;
6626;SDS011;3349;49.830;8.748;2023-02-28T05:28:53;5.47;;;4.30;;
6626;SDS011;3349;49.830;8.748;2023-02-28T05:31:20;6.67;;;4.30;;
6626;SDS011;3349;49.830;8.748;2023-02-28T05:33:48;4.10;;;3.27;;
6626;SDS011;3349;49.830;8.748;2023-02-28T05:36:15;6.00;;;4.20;;
6626;SDS011;3349;49.830;8.748;2023-02-28T05:38:41;5.53;;;4.00;;
6626;SDS011;3349;49.830;8.748;2023-02-28T05:41:09;5.20;;;4.50;;
6626;SDS011;3349;49.830;8.748;2023-02-28T05:43:37;4.57;;;3.50;;
6626;SDS011;3349;49.830;8.748;2023-02-28T05:46:04;7.30;;;4.07;;
6626;SDS011;3349;49.830;8.748;2023-02-28T05:48:31;6.07;;;3.80;;
6626;SDS011;3349;49.830;8.748;2023-02-28T05:51:00;8.10;;;4.17;;
6626;SDS011;3349;49.830;8.748;2023-02-28T05:53:27;6.27;;;4.10;;
6626;SDS011;3349;49.830;8.748;2023-02-28T05:55:55;5.90;;;3.67;;
6626;SDS011;3349;49.830;8.748;2023-02-28T05:58:21;4.90;;;3.90;;
6626;SDS011;3349;49.830;8.748;2023-02-28T06:00:50;6.77;;;4.53;;
6626;SDS011;3349;49.830;8.748;2023-02-28T06:03:17;7.80;;;4.33;;
6626;SDS011;3349;49.830;8.748;2023-02-28T06:05:44;7.43;;;4.60;;
6626;SDS011;3349;49.830;8.748;2023-02-28T06:08:12;7.10;;;4.63;;
6626;SDS011;3349;49.830;8.748;2023-02-28T06:10:38;7.40;;;3.83;;
6626;SDS011;3349;49.830;8.748;2023-02-28T06:13:05;5.53;;;4.07;;
6626;SDS011;3349;49.830;8.748;2023-02-28T06:15:32;4.57;;;3.97;;
6626;SDS011;3349;49.830;8.748;2023-02-28T06:17:59;5.57;;;4.23;;
6626;SDS011;3349;49.830;8.748;2023-02-28T06:20:26;4.70;;;3.87;;
6626;SDS011;3349;49.830;8.748;2023-02-28T06:22:54;5.97;;;4.10;;
6626;SDS011;3349;49.830;8.748;2023-02-28T06:25:25;5.53;;;3.93;;
6626;SDS011;3349;49.830;8.748;2023-02-28T06:27:52;4.93;;;3.80;;
6626;SDS011;3349;49.830;8.748;2023-02-28T06:30:20;7.07;;;4.90;;
6626;SDS011;3349;49.830;8.748;2023-02-28T06:32:49;8.23;;;4.53;;
6626;SDS011;3349;49.830;8.748;2023-02-28T06:35:16;6.23;;;3.93;;
6626;SDS011;3349;49.830;8.748;2023-02-28T06:37:43;9.13;;;4.03;;
6626;SDS011;3349;49.830;8.748;2023-02-28T06:40:12;5.27;;;3.93;;
6626;SDS011;3349;49.830;8.748;2023-02-28T06:42:41;6.00;;;4.00;;
6626;SDS011;3349;49.830;8.748;2023-02-28T06:45:08;5.17;;;4.10;;
6626;SDS011;3349;49.830;8.748;2023-02-28T06:47:35;5.40;;;4.73;;
6626;SDS011;3349;49.830;8.748;2023-02-28T06:50:03;5.33;;;4.10;;
6626;SDS011;3349;49.830;8.748;2023-02-28T06:52:31;6.03;;;4.40;;
6626;SDS011;3349;49.830;8.748;2023-02-28T06:54:57;6.60;;;4.10;;
6626;SDS011;3349;49.830;8.748;2023-02-28T06:57:27;5.17;;;4.60;;
6626;SDS011;3349;49.830;8.748;2023-02-28T06:59:57;6.73;;;4.77;;
6626;SDS011;3349;49.830;8.748;2023-02-28T07:02:24;8.57;;;4.90;;
6626;SDS011;3349;49.830;8.748;2023-02-28T07:04:51;10.93;;;4.93;;
6626;SDS011;3349;49.830;8.748;2023-02-28T07:07:18;7.40;;;5.53;;
6626;SDS011;3349;49.830;8.748;2023-02-28T07:09:45;7.07;;;5.40;;
6626;SDS011;3349;49.830;8.748;2023-02-28T07:12:12;6.20;;;4.60;;
6626;SDS011;3349;49.830;8.748;2023-02-28T07:14:39;9.37;;;4.40;;
6626;SDS011;3349;49.830;8.748;2023-02-28T07:17:07;6.57;;;4.27;;
6626;SDS011;3349;49.830;8.748;2023-02-28T07:19:35;7.60;;;4.77;;
6626;SDS011;3349;49.830;8.748;2023-02-28T07:22:02;8.20;;;5.03;;
6626;SDS011;3349;49.830;8.748;2023-02-28T07:24:29;8.87;;;4.87;;
6626;SDS011;3349;49.830;8.748;2023-02-28T07:26:56;6.37;;;4.07;;
6626;SDS011;3349;49.830;8.748;2023-02-28T07:29:24;7.27;;;4.00;;
6626;SDS011;3349;49.830;8.748;2023-02-28T07:31:51;4.07;;;3.47;;
6626;SDS011;3349;49.830;8.748;2023-02-28T07:34:19;9.77;;;4.67;;
6626;SDS011;3349;49.830;8.748;2023-02-28T07:36:46;5.27;;;4.00;;
6626;SDS011;3349;49.830;8.748;2023-02-28T07:39:13;6.97;;;4.20;;
6626;SDS011;3349;49.830;8.748;2023-02-28T07:41:39;5.93;;;4.30;;
6626;SDS011;3349;49.830;8.748;2023-02-28T07:44:08;5.77;;;4.30;;
6626;SDS011;3349;49.830;8.748;2023-02-28T07:46:35;7.03;;;4.10;;
6626;SDS011;3349;49.830;8.748;2023-02-28T07:49:02;5.80;;;3.80;;
6626;SDS011;3349;49.830;8.748;2023-02-28T07:51:31;5.43;;;4.07;;
6626;SDS011;3349;49.830;8.748;2023-02-28T07:53:57;6.07;;;3.70;;
6626;SDS011;3349;49.830;8.748;2023-02-28T07:56:24;6.07;;;4.00;;
6626;SDS011;3349;49.830;8.748;2023-02-28T07:58:51;7.53;;;3.70;;
6626;SDS011;3349;49.830;8.748;2023-02-28T08:01:18;5.57;;;4.07;;
6626;SDS011;3349;49.830;8.748;2023-02-28T08:03:44;7.67;;;4.57;;
6626;SDS011;3349;49.830;8.748;2023-02-28T08:06:15;5.70;;;4.10;;
6626;SDS011;3349;49.830;8.748;2023-02-28T08:08:45;6.27;;;4.00;;
6626;SDS011;3349;49.830;8.748;2023-02-28T08:11:13;4.40;;;3.57;;
6626;SDS011;3349;49.830;8.748;2023-02-28T08:13:40;5.43;;;3.83;;
6626;SDS011;3349;49.830;8.748;2023-02-28T08:16:09;7.33;;;4.37;;
6626;SDS011;3349;49.830;8.748;2023-02-28T08:18:36;6.20;;;3.50;;
6626;SDS011;3349;49.830;8.748;2023-02-28T08:21:05;7.50;;;5.00;;
6626;SDS011;3349;49.830;8.748;2023-02-28T08:23:33;6.00;;;3.87;;
6626;SDS011;3349;49.830;8.748;2023-02-28T08:26:01;6.67;;;4.77;;
6626;SDS011;3349;49.830;8.748;2023-02-28T08:28:29;6.57;;;4.77;;
6626;SDS011;3349;49.830;8.748;2023-02-28T08:30:56;7.90;;;5.03;;
6626;SDS011;3349;49.830;8.748;2023-02-28T08:33:22;5.70;;;4.07;;
6626;SDS011;3349;49.830;8.748;2023-02-28T08:35:52;7.23;;;4.30;;
6626;SDS011;3349;49.830;8.748;2023-02-28T08:38:19;6.87;;;4.90;;
6626;SDS011;3349;49.830;8.748;2023-02-28T08:40:46;5.20;;;4.20;;
6626;SDS011;3349;49.830;8.748;2023-02-28T08:43:14;6.53;;;4.43;;
6626;SDS011;3349;49.830;8.748;2023-02-28T08:45:41;6.00;;;4.43;;
6626;SDS011;3349;49.830;8.748;2023-02-28T08:48:07;4.90;;;4.17;;
6626;SDS011;3349;49.830;8.748;2023-02-28T08:50:34;5.67;;;4.60;;
6626;SDS011;3349;49.830;8.748;2023-02-28T08:53:01;7.37;;;5.50;;
6626;SDS011;3349;49.830;8.748;2023-02-28T08:55:28;5.73;;;4.20;;
6626;SDS011;3349;49.830;8.748;2023-02-28T08:57:55;8.97;;;4.63;;
6626;SDS011;3349;49.830;8.748;2023-02-28T09:00:23;9.07;;;5.37;;
6626;SDS011;3349;49.830;8.748;2023-02-28T09:02:51;5.93;;;4.60;;
6626;SDS011;3349;49.830;8.748;2023-02-28T09:05:19;10.13;;;5.27;;
6626;SDS011;3349;49.830;8.748;2023-02-28T09:07:46;8.17;;;5.30;;
6626;SDS011;3349;49.830;8.748;2023-02-28T09:10:13;7.53;;;5.33;;
6626;SDS011;3349;49.830;8.748;2023-02-28T09:12:39;8.50;;;5.60;;
6626;SDS011;3349;49.830;8.748;2023-02-28T09:15:07;7.80;;;6.40;;
6626;SDS011;3349;49.830;8.748;2023-02-28T09:17:36;7.70;;;5.50;;
6626;SDS011;3349;49.830;8.748;2023-02-28T09:20:03;8.27;;;5.60;;
6626;SDS011;3349;49.830;8.748;2023-02-28T09:22:30;6.97;;;5.63;;
6626;SDS011;3349;49.830;8.748;2023-02-28T09:24:57;9.07;;;5.70;;
6626;SDS011;3349;49.830;8.748;2023-02-28T09:27:24;8.25;;;5.47;;
6626;SDS011;3349;49.830;8.748;2023-02-28T09:29:51;9.30;;;6.17;;
6626;SDS011;3349;49.830;8.748;2023-02-28T09:32:18;7.30;;;5.40;;
6626;SDS011;3349;49.830;8.748;2023-02-28T09:34:46;9.05;;;6.47;;
6626;SDS011;3349;49.830;8.748;2023-02-28T09:37:13;9.00;;;5.40;;
6626;SDS011;3349;49.830;8.748;2023-02-28T09:39:39;6.50;;;5.50;;
6626;SDS011;3349;49.830;8.748;2023-02-28T09:42:11;7.53;;;5.45;;
6626;SDS011;3349;49.830;8.748;2023-02-28T09:44:46;8.80;;;5.50;;
6626;SDS011;3349;49.830;8.748;2023-02-28T09:47:16;8.05;;;6.03;;
6626;SDS011;3349;49.830;8.748;2023-02-28T09:49:49;8.48;;;6.00;;
6626;SDS011;3349;49.830;8.748;2023-02-28T09:52:17;7.85;;;5.90;;
6626;SDS011;3349;49.830;8.748;2023-02-28T09:54:45;7.68;;;5.68;;
6626;SDS011;3349;49.830;8.748;2023-02-28T09:57:14;10.35;;;6.43;;
6626;SDS011;3349;49.830;8.748;2023-02-28T09:59:49;9.25;;;5.57;;
6626;SDS011;3349;49.830;8.748;2023-02-28T10:02:32;8.10;;;6.03;;
6626;SDS011;3349;49.830;8.748;2023-02-28T10:05:34;7.70;;;6.28;;
6626;SDS011;3349;49.830;8.748;2023-02-28T10:08:06;9.75;;;7.40;;
6626;SDS011;3349;49.830;8.748;2023-02-28T10:10:38;6.60;;;5.60;;
6626;SDS011;3349;49.830;8.748;2023-02-28T10:13:12;9.18;;;6.95;;
6626;SDS011;3349;49.830;8.748;2023-02-28T10:15:43;10.75;;;7.20;;
6626;SDS011;3349;49.830;8.748;2023-02-28T10:18:14;8.65;;;6.60;;
6626;SDS011;3349;49.830;8.748;2023-02-28T10:20:46;7.90;;;6.53;;
6626;SDS011;3349;49.830;8.748;2023-02-28T10:23:17;10.55;;;6.40;;
6626;SDS011;3349;49.830;8.748;2023-02-28T10:25:48;6.60;;;5.43;;
6626;SDS011;3349;49.830;8.748;2023-02-28T10:28:19;8.93;;;5.50;;
6626;SDS011;3349;49.830;8.748;2023-02-28T10:30:47;7.70;;;5.95;;
6626;SDS011;3349;49.830;8.748;2023-02-28T10:33:17;7.53;;;5.80;;
6626;SDS011;3349;49.830;8.748;2023-02-28T10:35:49;7.40;;;6.43;;
6626;SDS011;3349;49.830;8.748;2023-02-28T10:38:18;7.00;;;5.60;;
6626;SDS011;3349;49.830;8.748;2023-02-28T10:40:46;7.28;;;5.90;;
6626;SDS011;3349;49.830;8.748;2023-02-28T10:43:20;9.30;;;6.40;;
6626;SDS011;3349;49.830;8.748;2023-02-28T10:45:53;6.65;;;5.88;;
6626;SDS011;3349;49.830;8.748;2023-02-28T10:48:36;7.57;;;6.07;;
6626;SDS011;3349;49.830;8.748;2023-02-28T10:51:06;9.90;;;6.88;;
6626;SDS011;3349;49.830;8.748;2023-02-28T10:53:38;9.82;;;7.32;;
6626;SDS011;3349;49.830;8.748;2023-02-28T10:56:14;10.52;;;8.00;;
6626;SDS011;3349;49.830;8.748;2023-02-28T10:58:48;8.95;;;7.18;;
6626;SDS011;3349;49.830;8.748;2023-02-28T11:01:18;9.85;;;7.45;;
6626;SDS011;3349;49.830;8.748;2023-02-28T11:03:46;10.02;;;6.22;;
6626;SDS011;3349;49.830;8.748;2023-02-28T11:06:16;9.75;;;7.68;;
6626;SDS011;3349;49.830;8.748;2023-02-28T11:08:47;9.52;;;7.35;;
6626;SDS011;3349;49.830;8.748;2023-02-28T11:11:16;7.53;;;6.72;;
6626;SDS011;3349;49.830;8.748;2023-02-28T11:13:45;7.18;;;6.03;;
6626;SDS011;3349;49.830;8.748;2023-02-28T11:16:16;6.70;;;5.90;;
6626;SDS011;3349;49.830;8.748;2023-02-28T11:18:44;7.85;;;7.03;;
6626;SDS011;3349;49.830;8.748;2023-02-28T11:21:18;7.57;;;6.78;;
6626;SDS011;3349;49.830;8.748;2023-02-28T11:23:49;8.75;;;6.88;;
6626;SDS011;3349;49.830;8.748;2023-02-28T11:29:18;8.35;;;6.78;;
6626;SDS011;3349;49.830;8.748;2023-02-28T11:32:03;10.63;;;7.10;;
6626;SDS011;3349;49.830;8.748;2023-02-28T11:34:37;8.05;;;6.90;;
6626;SDS011;3349;49.830;8.748;2023-02-28T11:37:09;9.43;;;7.00;;
6626;SDS011;3349;49.830;8.748;2023-02-28T11:39:38;7.80;;;6.93;;
6626;SDS011;3349;49.830;8.748;2023-02-28T11:42:09;8.15;;;7.03;;
6626;SDS011;3349;49.830;8.748;2023-02-28T11:44:50;8.15;;;7.35;;
6626;SDS011;3349;49.830;8.748;2023-02-28T11:47:31;12.07;;;7.75;;
6626;SDS011;3349;49.830;8.748;2023-02-28T11:50:07;8.27;;;7.47;;
6626;SDS011;3349;49.830;8.748;2023-02-28T11:52:50;8.10;;;7.25;;
6626;SDS011;3349;49.830;8.748;2023-02-28T11:55:20;8.00;;;6.75;;
6626;SDS011;3349;49.830;8.748;2023-02-28T11:57:53;9.93;;;7.15;;
6626;SDS011;3349;49.830;8.748;2023-02-28T12:00:39;8.55;;;7.55;;
6626;SDS011;3349;49.830;8.748;2023-02-28T12:03:22;9.43;;;7.68;;
6626;SDS011;3349;49.830;8.748;2023-02-28T12:06:00;8.32;;;7.03;;
6626;SDS011;3349;49.830;8.748;2023-02-28T12:08:44;10.43;;;9.30;;
6626;SDS011;3349;49.830;8.748;2023-02-28T12:11:26;9.43;;;7.90;;
6626;SDS011;3349;49.830;8.748;2023-02-28T12:14:06;9.23;;;8.02;;
6626;SDS011;3349;49.830;8.748;2023-02-28T12:16:51;9.27;;;7.72;;
6626;SDS011;3349;49.830;8.748;2023-02-28T12:19:26;13.57;;;10.55;;
6626;SDS011;3349;49.830;8.748;2023-02-28T12:22:11;9.95;;;8.77;;
6626;SDS011;3349;49.830;8.748;2023-02-28T12:24:57;10.65;;;8.57;;
6626;SDS011;3349;49.830;8.748;2023-02-28T12:27:43;11.02;;;8.23;;
6626;SDS011;3349;49.830;8.748;2023-02-28T12:30:13;9.07;;;8.18;;
6626;SDS011;3349;49.830;8.748;2023-02-28T12:32:45;9.75;;;7.55;;
6626;SDS011;3349;49.830;8.748;2023-02-28T12:35:16;8.13;;;7.05;;
6626;SDS011;3349;49.830;8.748;2023-02-28T12:37:50;9.20;;;7.93;;
6626;SDS011;3349;49.830;8.748;2023-02-28T12:40:23;9.75;;;8.75;;
6626;SDS011;3349;49.830;8.748;2023-02-28T12:42:54;9.35;;;7.88;;
6626;SDS011;3349;49.830;8.748;2023-02-28T12:45:39;9.82;;;8.82;;
6626;SDS011;3349;49.830;8.748;2023-02-28T12:48:08;10.32;;;9.20;;
6626;SDS011;3349;49.830;8.748;2023-02-28T12:50:39;11.02;;;9.80;;
6626;SDS011;3349;49.830;8.748;2023-02-28T12:53:08;8.30;;;7.40;;
6626;SDS011;3349;49.830;8.748;2023-02-28T12:55:42;9.27;;;8.35;;
6626;SDS011;3349;49.830;8.748;2023-02-28T12:58:14;9.10;;;8.20;;
6626;SDS011;3349;49.830;8.748;2023-02-28T13:00:50;10.38;;;8.60;;
6626;SDS011;3349;49.830;8.748;2023-02-28T13:03:39;9.30;;;8.30;;
6626;SDS011;3349;49.830;8.748;2023-02-28T13:09:22;11.35;;;8.95;;
6626;SDS011;3349;49.830;8.748;2023-02-28T13:11:51;7.80;;;7.00;;
6626;SDS011;3349;49.830;8.748;2023-02-28T13:14:21;8.98;;;6.90;;
6626;SDS011;3349;49.830;8.748;2023-02-28T13:16:55;9.57;;;7.72;;
6626;SDS011;3349;49.830;8.748;2023-02-28T13:19:26;9.45;;;8.05;;
6626;SDS011;3349;49.830;8.748;2023-02-28T13:21:55;9.77;;;7.43;;
6626;SDS011;3349;49.830;8.748;2023-02-28T13:24:40;8.05;;;6.13;;
6626;SDS011;3349;49.830;8.748;2023-02-28T13:38:52;9.52;;;8.15;;
6626;SDS011;3349;49.830;8.748;2023-02-28T13:44:14;10.40;;;7.40;;
6626;SDS011;3349;49.830;8.748;2023-02-28T13:49:50;10.43;;;6.80;;
6626;SDS011;3349;49.830;8.748;2023-02-28T13:52:20;8.43;;;6.82;;
6626;SDS011;3349;49.830;8.748;2023-02-28T13:57:51;9.82;;;7.32;;
6626;SDS011;3349;49.830;8.748;2023-02-28T14:00:37;10.05;;;8.15;;
6626;SDS011;3349;49.830;8.748;2023-02-28T14:03:23;10.27;;;8.07;;
6626;SDS011;3349;49.830;8.748;2023-02-28T14:06:08;9.80;;;7.57;;
6626;SDS011;3349;49.830;8.748;2023-02-28T14:08:46;14.07;;;7.82;;
6626;SDS011;3349;49.830;8.748;2023-02-28T14:11:27;11.02;;;7.35;;
6626;SDS011;3349;49.830;8.748;2023-02-28T14:13:56;9.55;;;7.13;;
6626;SDS011;3349;49.830;8.748;2023-02-28T14:16:25;8.32;;;6.85;;
6626;SDS011;3349;49.830;8.748;2023-02-28T14:18:56;10.68;;;7.90;;
6626;SDS011;3349;49.830;8.748;2023-02-28T14:21:27;12.57;;;7.72;;
6626;SDS011;3349;49.830;8.748;2023-02-28T14:27:03;9.88;;;6.95;;
6626;SDS011;3349;49.830;8.748;2023-02-28T14:29:51;9.50;;;6.72;;
6626;SDS011;3349;49.830;8.748;2023-02-28T14:32:43;9.35;;;7.13;;
6626;SDS011;3349;49.830;8.748;2023-02-28T14:35:20;9.13;;;6.57;;
6626;SDS011;3349;49.830;8.748;2023-02-28T14:38:07;9.60;;;7.20;;
6626;SDS011;3349;49.830;8.748;2023-02-28T14:40:43;9.70;;;7.00;;
6626;SDS011;3349;49.830;8.748;2023-02-28T14:43:18;11.07;;;7.78;;
6626;SDS011;3349;49.830;8.748;2023-02-28T14:45:49;9.73;;;7.60;;
6626;SDS011;3349;49.830;8.748;2023-02-28T14:48:19;9.57;;;7.13;;
6626;SDS011;3349;49.830;8.748;2023-02-28T14:50:51;11.15;;;7.50;;
6626;SDS011;3349;49.830;8.748;2023-02-28T14:53:19;10.20;;;7.45;;
6626;SDS011;3349;49.830;8.748;2023-02-28T14:55:49;9.13;;;7.70;;
6626;SDS011;3349;49.830;8.748;2023-02-28T14:58:22;8.98;;;7.72;;
6626;SDS011;3349;49.830;8.748;2023-02-28T15:00:50;13.07;;;8.80;;
6626;SDS011;3349;49.830;8.748;2023-02-28T15:03:22;9.40;;;7.45;;
6626;SDS011;3349;49.830;8.748;2023-02-28T15:05:51;11.05;;;8.85;;
6626;SDS011;3349;49.830;8.748;2023-02-28T15:08:19;11.98;;;8.95;;
6626;SDS011;3349;49.830;8.748;2023-02-28T15:10:49;11.38;;;8.57;;
6626;SDS011;3349;49.830;8.748;2023-02-28T15:13:19;10.18;;;8.00;;
6626;SDS011;3349;49.830;8.748;2023-02-28T15:15:48;12.25;;;8.38;;
6626;SDS011;3349;49.830;8.748;2023-02-28T15:18:27;11.43;;;8.52;;
6626;SDS011;3349;49.830;8.748;2023-02-28T15:21:01;10.70;;;7.85;;
6626;SDS011;3349;49.830;8.748;2023-02-28T15:23:30;8.50;;;7.43;;
6626;SDS011;3349;49.830;8.748;2023-02-28T15:25:58;8.35;;;7.18;;
6626;SDS011;3349;49.830;8.748;2023-02-28T15:28:25;10.55;;;7.32;;
6626;SDS011;3349;49.830;8.748;2023-02-28T15:30:54;9.52;;;7.90;;
6626;SDS011;3349;49.830;8.748;2023-02-28T15:33:24;10.10;;;7.03;;
6626;SDS011;3349;49.830;8.748;2023-02-28T15:36:02;11.80;;;8.05;;
6626;SDS011;3349;49.830;8.748;2023-02-28T15:38:33;9.40;;;7.30;;
6626;SDS011;3349;49.830;8.748;2023-02-28T15:41:02;10.82;;;8.05;;
6626;SDS011;3349;49.830;8.748;2023-02-28T15:43:34;9.68;;;6.93;;
6626;SDS011;3349;49.830;8.748;2023-02-28T15:46:02;8.45;;;7.05;;
6626;SDS011;3349;49.830;8.748;2023-02-28T15:48:31;9.93;;;7.72;;
6626;SDS011;3349;49.830;8.748;2023-02-28T15:51:02;11.40;;;7.57;;
6626;SDS011;3349;49.830;8.748;2023-02-28T15:53:35;9.35;;;6.90;;
6626;SDS011;3349;49.830;8.748;2023-02-28T15:56:04;13.73;;;8.15;;
6626;SDS011;3349;49.830;8.748;2023-02-28T15:58:41;10.23;;;7.45;;
6626;SDS011;3349;49.830;8.748;2023-02-28T16:01:17;11.68;;;7.55;;
6626;SDS011;3349;49.830;8.748;2023-02-28T16:03:48;8.93;;;6.30;;
6626;SDS011;3349;49.830;8.748;2023-02-28T16:06:24;10.35;;;7.07;;